Погода Педро Леополдона 2 недели

Минас-Жерайс, Бразилия

15 - 28 июля
  • 15июля
    Сегодня
    +14°
    +26°
    Практически безоблачно
    ВремяПогодаТемператураВлажностьДавлениеВетер, м/сВероятность осадков
    00:00Ясно и безоблачно+16°C68 %694 мм1.6 м/с5 %
    03:00Ясно и безоблачно+15°C71 %694 мм1.7 м/с5 %
    06:00Ясно и безоблачно+14°C76 %694 мм3.3 м/с5 %
    09:00Ясно и безоблачно+18°C52 %696 мм2.1 м/с5 %
    12:00Ясно и безоблачно+24°C35 %696 мм2.0 м/с5 %
    15:00Практически безоблачно+26°C33 %695 мм2.7 м/с5 %
    18:00Небольшая облачность+22°C39 %695 мм2.4 м/с5 %
    21:00Ясно и безоблачно+19°C54 %695 мм3.1 м/с5 %
  • 16июля
    Вторник
    +14°
    +26°
    Облачно с прояснениями
    ВремяПогодаТемператураВлажностьДавлениеВетер, м/сВероятность осадков
    00:00Небольшая облачность+16°C65 %695 мм1.7 м/с5 %
    03:00Облачно с прояснениями+16°C68 %694 мм2.4 м/с5 %
    06:00Облачно с прояснениями+15°C70 %694 мм3.5 м/с3 %
    09:00Небольшая облачность+18°C65 %697 мм3.3 м/с2 %
    12:00Облачно с прояснениями+24°C41 %696 мм3.3 м/с4 %
    15:00Облачно с прояснениями+25°C37 %695 мм3.0 м/с5 %
    18:00Небольшая облачность+21°C44 %695 мм3.2 м/с5 %
    21:00Ясно и безоблачно+19°C58 %696 мм3.2 м/с5 %
  • 17июля
    Среда
    +14°
    +27°
    Практически безоблачно
    ВремяПогодаТемператураВлажностьДавлениеВетер, м/сВероятность осадков
    00:00Ясно и безоблачно+16°C69 %695 мм1.8 м/с5 %
    03:00Ясно и безоблачно+15°C74 %694 мм1.8 м/с5 %
    06:00Ясно и безоблачно+15°C78 %695 мм3.6 м/с5 %
    09:00Ясно и безоблачно+19°C62 %696 мм2.5 м/с5 %
    12:00Практически безоблачно+25°C38 %696 мм1.8 м/с5 %
    15:00Практически безоблачно+26°C33 %694 мм2.2 м/с5 %
    18:00Ясно и безоблачно+23°C43 %694 мм2.2 м/с5 %
    21:00Ясно и безоблачно+20°C60 %694 мм2.8 м/с5 %
  • 18июля
    Четверг
    +16°
    +27°
    Облачно с прояснениями
    ВремяПогодаТемператураВлажностьДавлениеВетер, м/сВероятность осадков
    00:00Ясно и безоблачно+18°C74 %694 мм1.6 м/с5 %
    03:00Облачно с прояснениями+16°C81 %692 мм1.9 м/с5 %
    06:00Ясно и безоблачно+16°C87 %693 мм3.3 м/с5 %
    09:00Небольшая облачность+19°C55 %695 мм2.0 м/с5 %
    12:00Практически безоблачно+25°C36 %695 мм1.6 м/с5 %
    15:00Облачно с прояснениями+27°C33 %693 мм1.5 м/с5 %
    18:00Небольшая облачность+23°C41 %693 мм1.7 м/с5 %
    21:00Ясно и безоблачно+21°C49 %694 мм2.7 м/с5 %
  • 19июля
    Пятница
    +15°
    +28°
    Ясно и безоблачно
    ВремяПогодаТемператураВлажностьДавлениеВетер, м/сВероятность осадков
    00:00Ясно и безоблачно+18°C65 %694 мм1.8 м/с5 %
    03:00Ясно и безоблачно+17°C70 %693 мм1.8 м/с5 %
    06:00Ясно и безоблачно+16°C73 %694 мм3.3 м/с5 %
    09:00Ясно и безоблачно+20°C57 %696 мм2.6 м/с5 %
    12:00Ясно и безоблачно+26°C36 %696 мм2.1 м/с5 %
    15:00Ясно и безоблачно+27°C32 %695 мм2.7 м/с5 %
    18:00Ясно и безоблачно+23°C44 %694 мм2.6 м/с5 %
    21:00Ясно и безоблачно+20°C58 %695 мм3.3 м/с5 %
Мы используем cookies
Соглашаюсь